Time;durP1;ratioP1;P1;durP2;ratioP2;P2;SDS_P1;SDS_P2;PMS_P1;PMS_P2;Temp;Humidity;BMP_temperature;BMP_pressure;BME280_temperature;BME280_humidity;BME280_pressure;Samples;Min_cycle;Max_cycle;Signal;HPM_P1;HPM_P2
2024/01/22 00:01:49;;;;;;;13.87;7.90;;;;;;;-0.52;92.01;101502.97;5037502;28;20238;-72
2024/01/22 00:04:15;;;;;;;16.63;8.80;;;;;;;-0.54;89.40;101494.63;5039779;28;20462;-73
2024/01/22 00:06:43;;;;;;;14.50;7.33;;;;;;;-0.56;91.79;101492.25;5037152;28;20207;-72
2024/01/22 00:09:09;;;;;;;13.90;8.20;;;;;;;-0.57;92.56;101485.50;5041729;28;20203;-73
2024/01/22 00:11:35;;;;;;;15.73;8.30;;;;;;;-0.57;92.06;101482.13;5038158;28;20245;-73
2024/01/22 00:14:02;;;;;;;13.90;7.30;;;;;;;-0.57;91.26;101474.34;5043155;28;20204;-73
2024/01/22 00:16:28;;;;;;;15.17;7.77;;;;;;;-0.57;93.00;101476.94;5043863;28;20460;-72
2024/01/22 00:18:54;;;;;;;16.77;8.10;;;;;;;-0.59;92.22;101460.81;5041100;28;20215;-72
2024/01/22 00:21:21;;;;;;;15.03;8.40;;;;;;;-0.59;93.39;101450.44;5039476;28;20219;-73
2024/01/22 00:23:48;;;;;;;18.20;8.33;;;;;;;-0.60;93.28;101451.47;5038064;28;20203;-72
2024/01/22 00:26:15;;;;;;;12.73;7.37;;;;;;;-0.60;93.64;101448.88;5043674;28;20206;-73
2024/01/22 00:28:41;;;;;;;15.30;8.30;;;;;;;-0.59;94.96;101450.44;5042893;28;20218;-73
2024/01/22 00:31:08;;;;;;;14.33;7.97;;;;;;;-0.61;93.43;101440.28;5046314;28;20627;-73
2024/01/22 00:33:34;;;;;;;16.10;8.23;;;;;;;-0.61;93.71;101436.94;5040149;28;20684;-73
2024/01/22 00:36:00;;;;;;;12.90;7.20;;;;;;;-0.60;93.26;101436.69;5045194;28;20479;-72
2024/01/22 00:38:27;;;;;;;13.53;8.20;;;;;;;-0.60;93.80;101425.53;5043333;28;20206;-72
2024/01/22 00:40:54;;;;;;;17.17;8.20;;;;;;;-0.62;93.48;101430.19;5045348;28;20576;-73
2024/01/22 00:43:21;;;;;;;12.63;7.10;;;;;;;-0.64;95.05;101428.84;5042888;28;20203;-72
2024/01/22 00:45:47;;;;;;;16.53;7.53;;;;;;;-0.64;94.97;101419.22;5040768;28;20207;-73
2024/01/22 00:48:13;;;;;;;16.30;8.80;;;;;;;-0.63;95.31;101413.03;5043896;28;20223;-73
2024/01/22 00:50:40;;;;;;;14.30;8.10;;;;;;;-0.63;95.37;101414.84;5044517;28;20219;-73
2024/01/22 00:53:06;;;;;;;13.57;7.67;;;;;;;-0.63;95.14;101407.84;5037144;28;20559;-73
2024/01/22 00:55:32;;;;;;;13.43;7.37;;;;;;;-0.64;96.60;101402.91;5041635;28;20211;-73
2024/01/22 00:58:00;;;;;;;12.20;7.50;;;;;;;-0.64;95.98;101408.09;5039419;28;20199;-73
2024/01/22 01:00:27;;;;;;;15.90;7.83;;;;;;;-0.64;96.56;101395.88;5047219;28;20735;-72
2024/01/22 01:02:53;;;;;;;12.53;7.40;;;;;;;-0.65;97.60;101386.53;5037972;28;20227;-72
2024/01/22 01:05:19;;;;;;;12.33;7.03;;;;;;;-0.63;96.71;101373.34;5045180;28;20198;-72
2024/01/22 01:07:46;;;;;;;20.90;8.40;;;;;;;-0.62;97.17;101373.13;5044428;28;20226;-73
2024/01/22 01:10:12;;;;;;;12.37;7.80;;;;;;;-0.58;97.58;101355.28;5043297;28;20206;-73
2024/01/22 01:12:39;;;;;;;14.07;7.10;;;;;;;-0.56;98.00;101351.44;5041864;28;20218;-73
2024/01/22 01:15:08;;;;;;;15.40;8.23;;;;;;;-0.50;99.40;101358.28;5037579;28;20436;-73
2024/01/22 01:17:34;;;;;;;20.37;7.83;;;;;;;-0.46;99.22;101349.78;5044134;28;20199;-73
2024/01/22 01:20:00;;;;;;;13.23;7.60;;;;;;;-0.42;99.31;101337.13;5040079;28;20204;-73
2024/01/22 01:22:27;;;;;;;12.77;7.50;;;;;;;-0.36;99.82;101344.00;5043170;28;20227;-73
2024/01/22 01:24:53;;;;;;;14.20;7.73;;;;;;;-0.33;100.00;101337.56;5041950;28;20218;-73
2024/01/22 01:27:19;;;;;;;12.70;7.40;;;;;;;-0.28;100.00;101328.81;5042551;28;20214;-73
2024/01/22 01:29:46;;;;;;;11.40;6.97;;;;;;;-0.23;99.86;101328.09;5042549;28;20692;-72
2024/01/22 01:32:14;;;;;;;15.33;8.00;;;;;;;-0.20;100.00;101335.44;5039985;28;20272;-72
2024/01/22 01:34:40;;;;;;;14.53;7.67;;;;;;;-0.17;99.97;101336.78;5040985;28;20191;-73
2024/01/22 01:37:06;;;;;;;11.53;7.10;;;;;;;-0.15;100.00;101332.91;5041555;28;20242;-72
2024/01/22 01:39:33;;;;;;;12.80;7.13;;;;;;;-0.13;99.64;101329.06;5034672;28;20208;-73
2024/01/22 01:41:59;;;;;;;15.60;7.27;;;;;;;-0.10;100.00;101323.38;5037171;28;20859;-73
2024/01/22 01:44:46;;;;;;;15.63;7.77;;;;;;;-0.10;100.00;101325.97;5044592;28;20236;-72
2024/01/22 01:47:14;;;;;;;12.23;6.90;;;;;;;-0.10;99.36;101300.03;5056990;28;20226;-73
2024/01/22 01:49:40;;;;;;;11.53;7.20;;;;;;;-0.08;100.00;101297.19;5043237;28;20808;-73
2024/01/22 01:52:07;;;;;;;13.10;6.97;;;;;;;-0.08;100.00;101297.19;5040081;28;20625;-73
2024/01/22 01:54:35;;;;;;;12.63;6.77;;;;;;;-0.07;100.00;101299.56;5041789;28;20210;-73
2024/01/22 01:57:01;;;;;;;10.00;6.70;;;;;;;-0.05;100.00;101287.13;5043759;28;20230;-73
2024/01/22 01:59:28;;;;;;;14.40;6.77;;;;;;;-0.04;100.00;101278.31;5041774;28;20692;-73
2024/01/22 02:01:54;;;;;;;13.90;7.47;;;;;;;-0.02;100.00;101265.88;5038116;28;20303;-73
2024/01/22 02:04:22;;;;;;;12.20;6.63;;;;;;;0.01;99.32;101269.81;5041587;28;20231;-72
2024/01/22 02:06:48;;;;;;;13.30;7.50;;;;;;;0.02;100.00;101271.38;5043326;28;20666;-72
2024/01/22 02:09:15;;;;;;;13.43;7.10;;;;;;;0.03;99.76;101265.97;5043116;28;20258;-73
2024/01/22 02:11:41;;;;;;;12.57;6.93;;;;;;;0.05;100.00;101263.91;5047645;28;20226;-73
2024/01/22 02:14:08;;;;;;;10.20;6.93;;;;;;;0.06;100.00;101252.47;5040248;28;20202;-72
2024/01/22 02:16:34;;;;;;;14.00;7.03;;;;;;;0.07;100.00;101243.66;5048057;28;20207;-73
2024/01/22 02:19:00;;;;;;;10.43;6.20;;;;;;;0.09;100.00;101238.25;5039199;28;20210;-73
2024/01/22 02:21:28;;;;;;;11.10;6.47;;;;;;;0.09;98.36;101246.03;5046051;28;20632;-72
2024/01/22 02:23:56;;;;;;;11.43;6.73;;;;;;;0.09;99.14;101244.22;5041568;28;20212;-73
2024/01/22 02:26:22;;;;;;;13.73;7.07;;;;;;;0.11;99.10;101239.56;5039575;28;20208;-72
2024/01/22 02:28:48;;;;;;;10.83;6.63;;;;;;;0.10;99.80;101232.81;5045390;28;20212;-72
2024/01/22 02:31:16;;;;;;;11.60;6.90;;;;;;;0.11;100.00;101216.19;5042214;28;20233;-72
2024/01/22 02:33:43;;;;;;;11.40;6.70;;;;;;;0.13;100.00;101226.34;5046292;28;20504;-73
2024/01/22 02:36:09;;;;;;;12.77;6.47;;;;;;;0.17;99.92;101219.66;5041503;28;20195;-73
2024/01/22 02:38:36;;;;;;;11.63;6.33;;;;;;;0.21;99.15;101218.16;5046035;28;20198;-73
2024/01/22 02:41:04;;;;;;;10.53;6.50;;;;;;;0.24;99.56;101212.47;5040960;28;20313;-73
2024/01/22 02:43:30;;;;;;;11.37;6.97;;;;;;;0.29;99.58;101209.91;5042356;28;20210;-73
2024/01/22 02:45:56;;;;;;;11.70;7.23;;;;;;;0.34;100.00;101203.00;5042980;28;20213;-73
2024/01/22 02:48:23;;;;;;;10.57;6.33;;;;;;;0.37;98.80;101197.28;5045628;28;20212;-73
2024/01/22 02:50:49;;;;;;;11.73;6.50;;;;;;;0.39;98.81;101192.66;5042080;28;20196;-73
2024/01/22 02:53:15;;;;;;;12.13;6.80;;;;;;;0.44;99.54;101189.31;5042697;28;20207;-74
2024/01/22 02:55:41;;;;;;;9.97;6.13;;;;;;;0.48;100.00;101178.19;5040654;28;20825;-74
2024/01/22 02:58:09;;;;;;;11.50;6.43;;;;;;;0.52;99.68;101181.09;5029852;28;20211;-73
2024/01/22 03:00:35;;;;;;;10.90;5.90;;;;;;;0.57;98.57;101160.38;5031695;28;20195;-73
2024/01/22 03:03:02;;;;;;;11.20;6.60;;;;;;;0.58;98.75;101164.53;5033533;28;20692;-72
2024/01/22 03:05:28;;;;;;;10.93;6.77;;;;;;;0.61;99.84;101148.44;5035598;28;20207;-72
2024/01/22 03:07:54;;;;;;;11.10;6.70;;;;;;;0.63;99.24;101147.16;5029880;28;20693;-73
2024/01/22 03:10:21;;;;;;;9.73;5.93;;;;;;;0.66;99.88;101138.09;5035456;28;20877;-74
2024/01/22 03:12:47;;;;;;;10.30;5.97;;;;;;;0.68;99.25;101138.63;5036725;28;20237;-73
2024/01/22 03:15:15;;;;;;;10.83;6.47;;;;;;;0.69;100.00;101125.38;5030158;28;21236;-73
2024/01/22 03:17:41;;;;;;;10.70;6.20;;;;;;;0.73;100.00;101133.50;5036745;28;20239;-72
2024/01/22 03:20:09;;;;;;;12.73;6.00;;;;;;;0.77;99.57;101129.34;5034063;28;20206;-73
2024/01/22 03:22:36;;;;;;;11.57;6.23;;;;;;;0.80;99.63;101116.66;5036205;28;20226;-73
2024/01/22 03:25:02;;;;;;;10.93;6.20;;;;;;;0.83;99.87;101113.53;5033155;28;20470;-72
2024/01/22 03:27:29;;;;;;;14.07;7.23;;;;;;;0.85;99.94;101111.50;5035317;28;20204;-72
2024/01/22 03:29:54;;;;;;;9.97;5.53;;;;;;;0.89;99.77;101093.59;5035774;28;20203;-73
2024/01/22 03:32:22;;;;;;;10.33;5.90;;;;;;;0.92;100.00;101083.47;5036811;28;20266;-74
2024/01/22 03:34:48;;;;;;;10.97;6.50;;;;;;;0.98;99.90;101073.88;5036305;28;20200;-73
2024/01/22 03:37:14;;;;;;;11.53;7.00;;;;;;;1.01;100.00;101075.97;5036023;28;21460;-74
2024/01/22 03:39:41;;;;;;;11.40;6.63;;;;;;;1.07;98.68;101078.38;5039733;28;20203;-72
2024/01/22 03:42:11;;;;;;;9.20;6.20;;;;;;;1.10;99.39;101083.06;5035535;28;20630;-72
2024/01/22 03:44:38;;;;;;;9.87;5.90;;;;;;;1.16;98.80;101083.88;5036351;28;20605;-73
2024/01/22 03:47:04;;;;;;;11.90;6.27;;;;;;;1.20;98.55;101083.13;5032960;28;20199;-73
2024/01/22 03:49:32;;;;;;;10.97;5.70;;;;;;;1.25;100.00;101077.19;5034866;28;20211;-74
2024/01/22 03:51:58;;;;;;;8.40;5.80;;;;;;;1.29;99.85;101070.41;5032537;28;20250;-72
2024/01/22 03:54:24;;;;;;;12.70;6.03;;;;;;;1.34;98.12;101063.44;5035161;28;20218;-74
2024/01/22 03:56:51;;;;;;;9.97;5.83;;;;;;;1.39;100.00;101049.66;5038814;28;20429;-73
2024/01/22 03:59:18;;;;;;;9.33;5.60;;;;;;;1.45;100.00;101051.28;5030385;28;20221;-73
2024/01/22 04:01:44;;;;;;;10.07;5.87;;;;;;;1.52;98.02;101055.19;5033298;28;20839;-72
2024/01/22 04:04:12;;;;;;;12.53;6.30;;;;;;;1.59;100.00;101053.16;5037760;28;20207;-73
2024/01/22 04:06:40;;;;;;;9.20;6.07;;;;;;;1.68;98.13;101049.03;5037003;28;20200;-73
2024/01/22 04:09:06;;;;;;;8.27;5.57;;;;;;;1.74;98.22;101040.19;5040014;28;20223;-73
2024/01/22 04:11:33;;;;;;;9.70;5.60;;;;;;;1.82;98.58;101038.91;5036214;28;20224;-73
2024/01/22 04:13:59;;;;;;;10.60;6.43;;;;;;;1.87;100.00;101034.47;5036443;28;20577;-73
2024/01/22 04:16:25;;;;;;;9.50;5.80;;;;;;;1.93;98.19;101041.25;5038166;28;20209;-73
2024/01/22 04:18:52;;;;;;;13.47;6.00;;;;;;;2.01;98.95;101050.41;5038614;28;20207;-72
2024/01/22 04:21:18;;;;;;;14.33;5.97;;;;;;;2.08;97.57;101040.53;5035735;28;20233;-73
2024/01/22 04:23:46;;;;;;;9.13;5.50;;;;;;;2.11;98.53;101047.81;5037824;28;20474;-73
2024/01/22 04:26:12;;;;;;;15.57;8.37;;;;;;;2.16;96.62;101040.81;5038256;28;20203;-73
2024/01/22 04:28:38;;;;;;;11.87;6.07;;;;;;;2.23;98.53;101040.56;5037098;28;20276;-73
2024/01/22 04:31:06;;;;;;;10.13;6.00;;;;;;;2.26;98.21;101032.22;5035477;28;20226;-73
2024/01/22 04:33:33;;;;;;;10.27;6.03;;;;;;;2.29;98.30;101031.69;5039209;28;20222;-73
2024/01/22 04:35:59;;;;;;;9.37;5.37;;;;;;;2.32;97.24;101031.97;5036044;28;20203;-72
2024/01/22 04:38:26;;;;;;;10.73;6.30;;;;;;;2.37;99.57;101033.78;5036990;28;20580;-74
2024/01/22 04:40:53;;;;;;;8.67;5.20;;;;;;;2.39;96.30;101022.06;5038981;28;20660;-73
2024/01/22 04:43:21;;;;;;;12.13;6.20;;;;;;;2.43;97.66;101035.34;5034580;28;20470;-73
2024/01/22 04:45:47;;;;;;;9.53;5.20;;;;;;;2.45;99.21;101017.63;5038361;28;20200;-73
2024/01/22 04:48:14;;;;;;;7.67;4.77;;;;;;;2.48;95.66;101017.09;5036664;28;20223;-73
2024/01/22 04:50:40;;;;;;;8.97;5.50;;;;;;;2.53;95.99;101011.88;5039357;28;20578;-73
2024/01/22 04:53:06;;;;;;;7.87;5.03;;;;;;;2.55;99.34;101022.84;5037551;28;20752;-73
2024/01/22 04:55:33;;;;;;;7.60;4.83;;;;;;;2.57;94.53;101016.31;5036812;28;20199;-73
2024/01/22 04:58:01;;;;;;;6.77;4.90;;;;;;;2.60;95.87;101015.78;5035477;28;20195;-73
2024/01/22 05:00:27;;;;;;;9.10;4.43;;;;;;;2.63;94.56;101017.88;5037555;28;20257;-72
2024/01/22 05:02:54;;;;;;;14.73;5.53;;;;;;;2.65;93.34;101022.84;5033506;28;20256;-72
2024/01/22 05:05:20;;;;;;;8.03;4.70;;;;;;;2.68;95.20;101017.09;5035332;28;20214;-72
2024/01/22 05:07:46;;;;;;;9.43;4.83;;;;;;;2.69;97.89;101016.06;5033317;28;20208;-73
2024/01/22 05:10:13;;;;;;;9.70;4.93;;;;;;;2.72;93.87;101018.13;5035616;28;20219;-73
2024/01/22 05:12:40;;;;;;;7.63;4.60;;;;;;;2.71;93.57;101021.78;5032130;28;20720;-73
2024/01/22 05:15:09;;;;;;;5.93;4.50;;;;;;;2.72;93.95;101013.72;5034673;28;20199;-72
2024/01/22 05:17:35;;;;;;;8.30;4.90;;;;;;;2.72;94.56;101011.09;5039767;28;20201;-72
2024/01/22 05:20:02;;;;;;;6.53;4.17;;;;;;;2.72;94.04;101003.28;5035654;28;20203;-72
2024/01/22 05:22:28;;;;;;;9.40;4.80;;;;;;;2.71;94.76;100999.09;5034345;28;20219;-72
2024/01/22 05:24:55;;;;;;;7.43;4.73;;;;;;;2.71;95.39;100988.66;5033140;28;20214;-72
2024/01/22 05:27:21;;;;;;;7.37;4.20;;;;;;;2.71;94.42;100969.66;5029887;28;20322;-72
2024/01/22 05:29:47;;;;;;;8.13;4.60;;;;;;;2.71;92.92;100959.22;5029938;28;20585;-72
2024/01/22 05:32:15;;;;;;;8.13;4.93;;;;;;;2.68;94.15;100944.88;5029773;28;20223;-72
2024/01/22 05:34:41;;;;;;;8.30;4.73;;;;;;;2.69;95.90;100928.19;5030106;28;20203;-73
2024/01/22 05:37:08;;;;;;;7.33;4.60;;;;;;;2.69;94.80;100928.19;5028344;28;20204;-73
2024/01/22 05:39:34;;;;;;;6.50;4.33;;;;;;;2.67;95.26;100926.88;5030660;28;20713;-73
2024/01/22 05:42:00;;;;;;;6.20;4.30;;;;;;;2.68;96.20;100916.19;5029252;28;20225;-71
2024/01/22 05:44:27;;;;;;;8.17;5.23;;;;;;;2.69;94.04;100915.16;5028613;28;20215;-71
2024/01/22 05:46:53;;;;;;;9.30;5.20;;;;;;;2.68;95.90;100907.59;5030052;28;20739;-71
2024/01/22 05:49:21;;;;;;;8.63;4.27;;;;;;;2.68;96.03;100900.56;5025420;28;20732;-71
2024/01/22 05:51:47;;;;;;;8.20;4.67;;;;;;;2.70;95.73;100901.06;5028839;28;20223;-71
2024/01/22 05:54:14;;;;;;;7.83;4.73;;;;;;;2.71;94.67;100879.16;5027477;28;20211;-71
2024/01/22 05:56:40;;;;;;;10.10;5.03;;;;;;;2.72;92.88;100891.16;5031661;28;20203;-71
2024/01/22 05:59:07;;;;;;;7.83;4.97;;;;;;;2.73;93.36;100861.44;5028952;28;20217;-71
2024/01/22 06:01:34;;;;;;;8.70;5.27;;;;;;;2.73;94.25;100856.22;5035633;28;20227;-71
2024/01/22 06:04:00;;;;;;;7.20;4.57;;;;;;;2.75;94.20;100824.69;5034403;28;20200;-71
2024/01/22 06:06:28;;;;;;;9.60;5.23;;;;;;;2.75;96.45;100788.16;5037301;28;20200;-71
2024/01/22 06:08:54;;;;;;;9.50;5.20;;;;;;;2.76;95.56;100836.66;5037936;28;20752;-71
2024/01/22 06:11:21;;;;;;;9.67;5.47;;;;;;;2.78;95.62;100835.34;5037425;28;20242;-71
2024/01/22 06:13:47;;;;;;;11.40;5.10;;;;;;;2.79;94.39;100821.25;5039945;28;20705;-71
2024/01/22 06:16:15;;;;;;;9.00;5.43;;;;;;;2.80;93.72;100827.25;5034788;28;20203;-71
2024/01/22 06:18:45;;;;;;;10.23;4.37;;;;;;;2.81;98.47;100837.41;5040767;28;20206;-71
2024/01/22 06:21:12;;;;;;;9.00;5.07;;;;;;;2.81;93.97;100805.34;5038105;28;20222;-71
2024/01/22 06:23:40;;;;;;;9.40;4.60;;;;;;;2.81;92.17;100795.69;5040438;28;20207;-71
2024/01/22 06:26:07;;;;;;;8.57;4.47;;;;;;;2.82;92.64;100786.03;5036617;28;20231;-71
2024/01/22 06:28:34;;;;;;;5.83;3.90;;;;;;;2.83;94.88;100798.81;5037141;28;20202;-71
2024/01/22 06:31:00;;;;;;;8.47;4.20;;;;;;;2.81;92.89;100808.72;5035454;28;20228;-71
2024/01/22 06:33:26;;;;;;;5.20;3.87;;;;;;;2.83;95.04;100813.66;5037737;28;20206;-71
2024/01/22 06:35:53;;;;;;;10.77;6.30;;;;;;;2.81;93.72;100826.97;5033405;28;20390;-71
2024/01/22 06:38:19;;;;;;;6.57;4.57;;;;;;;2.82;92.56;100793.88;5041548;28;20217;-71
2024/01/22 06:40:47;;;;;;;7.93;5.00;;;;;;;2.83;93.49;100787.59;5042757;28;20204;-71
2024/01/22 06:43:14;;;;;;;11.50;5.07;;;;;;;2.83;92.98;100777.97;5042839;28;20214;-71
2024/01/22 06:45:41;;;;;;;8.43;4.63;;;;;;;2.83;95.45;100782.38;5044185;28;20206;-71
2024/01/22 06:48:08;;;;;;;7.67;4.43;;;;;;;2.83;95.09;100764.91;5045927;28;20218;-71
2024/01/22 06:50:34;;;;;;;8.23;4.90;;;;;;;2.85;95.47;100762.81;5039003;28;20226;-71
2024/01/22 06:53:00;;;;;;;8.07;4.13;;;;;;;2.86;95.57;100753.94;5040543;28;20198;-71
2024/01/22 06:55:27;;;;;;;6.30;4.07;;;;;;;2.88;95.38;100749.25;5037117;28;20500;-71
2024/01/22 06:57:54;;;;;;;7.90;4.00;;;;;;;2.92;94.00;100737.22;5043748;28;20206;-71
2024/01/22 07:00:21;;;;;;;9.77;4.70;;;;;;;2.94;94.16;100724.69;5044767;28;20198;-71
2024/01/22 07:02:49;;;;;;;7.27;4.43;;;;;;;2.98;95.08;100698.84;5031184;28;20225;-71
2024/01/22 07:05:15;;;;;;;8.13;4.30;;;;;;;3.00;97.67;100725.44;5036661;28;20203;-71
2024/01/22 07:07:42;;;;;;;8.60;4.23;;;;;;;3.02;96.48;100720.72;5038451;28;20217;-71
2024/01/22 07:10:09;;;;;;;5.77;3.67;;;;;;;3.03;94.75;100704.81;5036444;28;20578;-71
2024/01/22 07:12:36;;;;;;;6.07;3.90;;;;;;;3.06;94.91;100690.44;5042967;28;20219;-71
2024/01/22 07:15:05;;;;;;;10.10;5.40;;;;;;;3.10;97.79;100691.44;5038852;28;20203;-71
2024/01/22 07:17:31;;;;;;;7.17;4.40;;;;;;;3.13;95.73;100706.53;5038771;28;20240;-71
2024/01/22 07:19:57;;;;;;;7.43;4.23;;;;;;;3.14;96.76;100708.88;5038249;28;20200;-71
2024/01/22 07:22:24;;;;;;;6.70;4.03;;;;;;;3.16;94.76;100706.00;5036330;28;20231;-71
2024/01/22 07:24:50;;;;;;;6.33;4.23;;;;;;;3.18;96.08;100701.28;5037833;28;20195;-71
2024/01/22 07:27:17;;;;;;;6.33;4.37;;;;;;;3.20;94.65;100697.34;5037449;28;20597;-71
2024/01/22 07:29:44;;;;;;;6.33;3.77;;;;;;;3.22;97.08;100702.31;5037776;28;20208;-71
2024/01/22 07:32:12;;;;;;;6.70;3.70;;;;;;;3.23;93.94;100689.00;5035232;28;20231;-71
2024/01/22 07:34:38;;;;;;;8.33;4.60;;;;;;;3.25;93.52;100692.09;5037161;28;20207;-70
2024/01/22 07:37:06;;;;;;;6.13;4.00;;;;;;;3.26;94.59;100690.28;5039270;28;20233;-71
2024/01/22 07:39:32;;;;;;;6.33;4.03;;;;;;;3.29;96.30;100710.59;5040831;28;20203;-71
2024/01/22 07:41:59;;;;;;;10.93;5.07;;;;;;;3.32;95.40;100695.16;5036696;28;20226;-71
2024/01/22 07:44:25;;;;;;;5.70;3.53;;;;;;;3.31;93.93;100704.03;5032663;28;20207;-71
2024/01/22 07:46:52;;;;;;;6.20;3.83;;;;;;;3.34;95.76;100698.28;5041954;28;20215;-71
2024/01/22 07:49:20;;;;;;;6.60;3.87;;;;;;;3.38;97.81;100716.78;5036896;28;20212;-71
2024/01/22 07:51:46;;;;;;;6.07;3.60;;;;;;;3.39;94.07;100723.56;5039364;28;20223;-71
2024/01/22 07:54:12;;;;;;;8.70;4.03;;;;;;;3.43;94.48;100727.19;5034545;28;20208;-71
2024/01/22 07:56:39;;;;;;;6.20;3.87;;;;;;;3.47;92.00;100721.13;5036586;28;20684;-71
2024/01/22 07:59:05;;;;;;;6.70;3.97;;;;;;;3.48;95.22;100704.41;5040483;28;20286;-71
2024/01/22 08:01:31;;;;;;;6.17;3.77;;;;;;;3.49;95.31;100715.63;5037375;28;20249;-71
2024/01/22 08:03:58;;;;;;;8.33;4.20;;;;;;;3.50;92.83;100733.66;5038199;28;20200;-71
2024/01/22 08:06:25;;;;;;;7.90;4.20;;;;;;;3.52;93.61;100726.31;5036254;28;20199;-71
2024/01/22 08:08:52;;;;;;;5.77;3.67;;;;;;;3.54;94.96;100746.91;5038086;28;20206;-71
2024/01/22 08:11:18;;;;;;;5.97;3.70;;;;;;;3.57;93.79;100747.16;5035559;28;20224;-71
2024/01/22 08:13:44;;;;;;;6.27;3.77;;;;;;;3.59;94.20;100754.72;5036863;28;20203;-71
2024/01/22 08:16:12;;;;;;;6.90;3.60;;;;;;;3.63;95.65;100747.88;5039000;28;20203;-72
2024/01/22 08:18:38;;;;;;;5.83;4.00;;;;;;;3.65;95.72;100740.56;5039625;28;20204;-71
2024/01/22 08:21:05;;;;;;;6.40;3.90;;;;;;;3.68;96.19;100756.44;5036076;28;20224;-72
2024/01/22 08:23:33;;;;;;;5.43;3.87;;;;;;;3.72;94.21;100749.63;5033782;28;20207;-71
2024/01/22 08:26:00;;;;;;;7.80;4.07;;;;;;;3.77;94.18;100748.78;5035750;28;20210;-72
2024/01/22 08:28:27;;;;;;;6.33;3.53;;;;;;;3.80;93.29;100733.34;5037478;28;20211;-72
2024/01/22 08:30:55;;;;;;;7.07;3.67;;;;;;;3.85;94.12;100748.19;5037063;28;20224;-72
2024/01/22 08:33:22;;;;;;;6.07;3.80;;;;;;;3.89;97.82;100739.50;5036537;28;20220;-72
2024/01/22 08:35:48;;;;;;;6.27;3.60;;;;;;;3.93;93.74;100747.56;5034412;28;20412;-72
2024/01/22 08:38:15;;;;;;;6.40;3.40;;;;;;;3.95;92.27;100725.34;5037034;28;20207;-72
2024/01/22 08:40:42;;;;;;;7.30;3.90;;;;;;;4.00;92.78;100734.97;5035143;28;20572;-72
2024/01/22 08:43:10;;;;;;;6.90;3.73;;;;;;;4.03;91.60;100729.19;5036132;28;20274;-72
2024/01/22 08:45:36;;;;;;;6.67;3.63;;;;;;;4.06;93.50;100720.78;5034717;28;20647;-72
2024/01/22 08:48:04;;;;;;;4.40;3.17;;;;;;;4.08;93.11;100721.28;5040962;28;20267;-72
2024/01/22 08:50:30;;;;;;;4.63;3.33;;;;;;;4.11;90.80;100725.97;5040387;28;20681;-72
2024/01/22 08:52:56;;;;;;;11.40;4.23;;;;;;;4.13;92.53;100714.19;5041492;28;20538;-73
2024/01/22 08:55:23;;;;;;;5.63;3.80;;;;;;;4.15;94.05;100719.13;5039148;28;21251;-72
2024/01/22 08:57:53;;;;;;;4.53;3.33;;;;;;;4.16;95.46;100713.63;5042637;28;20633;-72
2024/01/22 09:00:21;;;;;;;6.57;3.97;;;;;;;4.17;94.80;100706.56;5042390;28;20204;-72
2024/01/22 09:02:47;;;;;;;6.07;2.87;;;;;;;4.18;96.28;100698.44;5038977;28;20233;-72
2024/01/22 09:05:14;;;;;;;6.87;3.33;;;;;;;4.19;91.78;100702.59;5041548;28;20211;-72
2024/01/22 09:07:41;;;;;;;4.60;2.83;;;;;;;4.19;93.33;100712.28;5038093;28;20593;-72
2024/01/22 09:10:08;;;;;;;5.23;2.80;;;;;;;4.21;94.71;100687.44;5040376;28;20223;-72
2024/01/22 09:12:35;;;;;;;5.10;2.80;;;;;;;4.25;95.69;100688.41;5040385;28;20233;-72
2024/01/22 09:15:05;;;;;;;5.00;3.03;;;;;;;4.28;95.75;100679.22;5040923;28;20864;-72
2024/01/22 09:17:32;;;;;;;4.83;2.97;;;;;;;4.31;95.05;100673.47;5040909;28;20215;-72
2024/01/22 09:19:59;;;;;;;4.80;2.80;;;;;;;4.34;94.83;100668.44;5041019;28;20212;-72
2024/01/22 09:22:25;;;;;;;4.93;3.10;;;;;;;4.35;94.45;100672.59;5038391;28;20227;-73
2024/01/22 09:24:52;;;;;;;4.77;2.87;;;;;;;4.37;94.81;100677.56;5042891;28;20578;-72
2024/01/22 09:27:19;;;;;;;5.90;3.30;;;;;;;4.39;94.26;100668.38;5041213;28;20470;-72
2024/01/22 09:29:45;;;;;;;4.73;2.77;;;;;;;4.44;93.53;100665.69;5042585;28;20240;-71
2024/01/22 09:32:13;;;;;;;3.30;2.70;;;;;;;4.45;92.52;100669.84;5040872;28;20250;-72
2024/01/22 09:34:40;;;;;;;3.97;2.63;;;;;;;4.48;96.09;100658.06;5037365;28;20210;-72
2024/01/22 09:37:07;;;;;;;3.13;2.63;;;;;;;4.50;95.31;100654.09;5041100;28;21183;-72
2024/01/22 09:39:33;;;;;;;4.60;2.77;;;;;;;4.51;95.14;100649.66;5038911;28;20198;-72
2024/01/22 09:42:00;;;;;;;3.13;2.50;;;;;;;4.56;96.05;100663.41;5040324;28;20227;-72
2024/01/22 09:44:27;;;;;;;4.63;2.97;;;;;;;4.61;94.40;100662.59;5038108;28;20290;-72
2024/01/22 09:46:54;;;;;;;4.13;2.43;;;;;;;4.64;96.97;100659.38;5041652;28;20214;-72
2024/01/22 09:49:23;;;;;;;3.90;2.50;;;;;;;4.70;97.57;100677.34;5039441;28;20661;-72
2024/01/22 09:51:50;;;;;;;5.57;2.67;;;;;;;4.73;99.40;100666.31;5042385;28;20219;-72
2024/01/22 09:54:19;;;;;;;3.63;2.53;;;;;;;4.76;97.94;100670.97;5039605;28;20207;-73
2024/01/22 09:56:50;;;;;;;5.13;2.97;;;;;;;4.78;100.00;100668.06;5037519;28;21358;-73
2024/01/22 09:59:19;;;;;;;3.77;2.60;;;;;;;4.78;100.00;100666.25;5039024;28;20226;-73
2024/01/22 10:01:48;;;;;;;3.53;2.30;;;;;;;4.77;100.00;100669.16;5039772;28;20223;-73
2024/01/22 10:04:14;;;;;;;5.43;3.03;;;;;;;4.76;100.00;100665.75;5037088;28;20569;-73
2024/01/22 10:06:43;;;;;;;7.47;3.30;;;;;;;4.72;100.00;100667.38;5041393;28;20209;-73
2024/01/22 10:09:14;;;;;;;4.93;2.97;;;;;;;4.71;100.00;100675.53;5041128;28;20488;-72
2024/01/22 10:11:41;;;;;;;3.90;2.53;;;;;;;4.67;100.00;100664.06;5038194;28;20784;-72
2024/01/22 10:14:08;;;;;;;5.20;3.37;;;;;;;4.64;100.00;100677.69;5036145;28;20203;-73
2024/01/22 10:16:36;;;;;;;5.23;2.80;;;;;;;4.58;100.00;100660.53;5036731;28;20207;-73
2024/01/22 10:19:05;;;;;;;4.63;2.87;;;;;;;4.55;100.00;100666.31;5040644;28;20207;-73
2024/01/22 10:21:32;;;;;;;5.43;3.17;;;;;;;4.49;100.00;100662.22;5039940;28;20215;-73
2024/01/22 10:24:01;;;;;;;11.03;3.10;;;;;;;4.48;100.00;100656.22;5038551;28;20470;-72
2024/01/22 10:26:28;;;;;;;5.43;3.00;;;;;;;4.45;100.00;100658.63;5038446;28;20201;-73
2024/01/22 10:28:55;;;;;;;8.10;3.40;;;;;;;4.42;100.00;100664.41;5039118;28;20256;-73
2024/01/22 10:31:20;;;;;;;4.47;2.80;;;;;;;4.36;100.00;100662.94;5038376;28;20227;-73
2024/01/22 10:33:48;;;;;;;6.03;3.20;;;;;;;4.30;100.00;100651.75;5039770;28;20759;-73
2024/01/22 10:36:16;;;;;;;4.43;3.17;;;;;;;4.28;100.00;100646.03;5039982;28;20256;-73
2024/01/22 10:38:43;;;;;;;6.00;3.37;;;;;;;4.25;100.00;100649.22;5038566;28;20203;-73
2024/01/22 10:41:18;;;;;;;5.30;3.20;;;;;;;4.22;100.00;100647.19;5038569;28;20297;-72
2024/01/22 10:43:45;;;;;;;5.17;3.27;;;;;;;4.22;100.00;100635.94;5035346;28;20206;-73
2024/01/22 10:46:12;;;;;;;7.80;3.40;;;;;;;4.18;100.00;100622.66;5040122;28;20206;-73
2024/01/22 10:48:40;;;;;;;4.03;2.87;;;;;;;4.17;100.00;100608.03;5039473;28;20230;-73
2024/01/22 10:51:06;;;;;;;6.43;4.13;;;;;;;4.16;100.00;100616.94;5039421;28;20237;-73
2024/01/22 10:53:33;;;;;;;7.23;3.53;;;;;;;4.16;100.00;100606.50;5035282;28;20195;-73
2024/01/22 10:56:02;;;;;;;6.23;3.20;;;;;;;4.16;100.00;100601.28;5039171;28;20208;-73
2024/01/22 10:58:40;;;;;;;4.90;3.33;;;;;;;4.15;100.00;100602.31;5037229;28;20220;-73
2024/01/22 11:01:13;;;;;;;6.97;3.97;;;;;;;4.15;100.00;100589.22;5041922;28;20218;-73
2024/01/22 11:03:46;;;;;;;8.43;4.00;;;;;;;4.14;100.00;100584.31;5035063;28;20209;-73
2024/01/22 11:06:17;;;;;;;6.17;3.30;;;;;;;4.17;100.00;100581.91;5040621;28;20437;-73
2024/01/22 11:08:47;;;;;;;7.97;3.70;;;;;;;4.17;100.00;100578.50;5037106;28;20257;-73
2024/01/22 11:11:17;;;;;;;5.93;3.50;;;;;;;4.19;100.00;100566.72;5037349;28;20284;-73
2024/01/22 11:13:49;;;;;;;5.70;3.93;;;;;;;4.21;100.00;100569.03;5037388;28;20206;-73
2024/01/22 11:16:15;;;;;;;6.10;4.10;;;;;;;4.20;100.00;100575.34;5042463;28;20222;-73
2024/01/22 11:18:53;;;;;;;5.23;3.50;;;;;;;4.21;100.00;100574.28;5037210;28;20206;-73
2024/01/22 11:21:20;;;;;;;5.40;3.70;;;;;;;4.24;100.00;100578.91;5035183;28;20230;-73
2024/01/22 11:24:06;;;;;;;7.10;4.17;;;;;;;4.22;100.00;100565.38;5037426;28;20265;-72
2024/01/22 11:26:33;;;;;;;5.60;3.50;;;;;;;4.23;100.00;100567.72;5034455;28;20597;-73